Time;durP1;ratioP1;P1;durP2;ratioP2;P2;SDS_P1;SDS_P2;PMS_P1;PMS_P2;Temp;Humidity;BMP_temperature;BMP_pressure;BME280_temperature;BME280_humidity;BME280_pressure;Samples;Min_cycle;Max_cycle;Signal;HPM_P1;HPM_P2
2022/05/06 00:00:44;;;;;;;12.30;10.60;;;;;;;14.13;61.45;100257.08;215195;1274;141275;-72
2022/05/06 00:05:48;;;;;;;15.40;11.80;;;;;;;14.06;61.82;100256.88;214640;1274;141740;-70
2022/05/06 00:10:51;;;;;;;12.60;10.90;;;;;;;13.98;61.75;100256.70;214747;1274;141242;-71
2022/05/06 00:15:55;;;;;;;13.70;12.20;;;;;;;13.89;62.07;100262.02;214958;1274;141332;-68
2022/05/06 00:20:58;;;;;;;16.10;11.40;;;;;;;13.80;62.41;100266.27;213649;1274;143240;-75
2022/05/06 00:26:03;;;;;;;13.30;10.60;;;;;;;13.66;62.72;100260.35;213948;1274;143211;-70
2022/05/06 00:31:09;;;;;;;13.40;12.00;;;;;;;13.52;63.02;100265.55;214173;1273;141193;-69
2022/05/06 00:36:14;;;;;;;13.00;11.70;;;;;;;13.54;63.47;100262.31;213553;1274;140795;-70
2022/05/06 00:41:18;;;;;;;14.10;11.50;;;;;;;13.54;63.84;100263.77;213828;1274;143385;-70
2022/05/06 00:46:22;;;;;;;12.50;10.30;;;;;;;13.54;64.00;100266.30;213445;1274;141724;-71
2022/05/06 00:51:25;;;;;;;11.20;10.10;;;;;;;13.48;64.11;100271.34;214139;1274;142251;-71
2022/05/06 00:56:29;;;;;;;13.10;11.80;;;;;;;13.40;64.00;100276.89;213493;1274;142635;-68
2022/05/06 01:01:34;;;;;;;11.90;10.60;;;;;;;13.37;64.18;100279.44;214551;1274;143809;-72
2022/05/06 01:06:37;;;;;;;13.10;11.50;;;;;;;13.33;64.45;100279.84;214242;1274;141644;-72
2022/05/06 01:11:39;;;;;;;16.60;12.30;;;;;;;13.27;64.96;100287.43;214341;1274;142609;-67
2022/05/06 01:16:42;;;;;;;16.00;13.20;;;;;;;13.19;64.99;100291.45;214283;1274;156132;-70
2022/05/06 01:21:54;;;;;;;16.70;14.40;;;;;;;13.16;65.55;100294.92;214860;1274;142142;-71
2022/05/06 01:27:01;;;;;;;19.80;12.50;;;;;;;13.19;65.80;100299.27;215590;1274;142238;-71
2022/05/06 01:32:05;;;;;;;19.60;13.70;;;;;;;13.19;65.99;100292.57;215996;1274;141498;-68
2022/05/06 01:37:11;;;;;;;14.70;12.90;;;;;;;13.21;66.15;100298.83;215639;1274;141517;-66
2022/05/06 01:42:18;;;;;;;14.70;13.10;;;;;;;13.21;66.15;100298.39;214943;1274;143193;-66
2022/05/06 01:47:26;;;;;;;18.10;14.40;;;;;;;13.19;66.39;100297.71;214666;1274;141301;-67
2022/05/06 01:52:31;;;;;;;28.80;14.20;;;;;;;13.13;66.59;100300.09;214935;1274;142834;-68
2022/05/06 01:57:34;;;;;;;15.00;13.40;;;;;;;13.07;66.86;100304.80;214930;1274;142772;-69
2022/05/06 02:02:36;;;;;;;22.80;15.40;;;;;;;13.02;66.56;100307.27;214287;1274;141559;-66
2022/05/06 02:07:40;;;;;;;13.20;11.90;;;;;;;12.97;67.03;100305.39;214533;1274;141512;-66
2022/05/06 02:12:44;;;;;;;16.40;13.80;;;;;;;12.91;66.95;100306.91;214152;1274;141581;-65
2022/05/06 02:17:49;;;;;;;16.90;14.30;;;;;;;12.86;67.16;100314.04;213367;1274;142132;-66
2022/05/06 02:22:52;;;;;;;15.10;13.40;;;;;;;12.77;67.30;100315.38;213579;1274;141684;-66
2022/05/06 02:27:54;;;;;;;17.30;15.50;;;;;;;12.71;67.50;100322.60;213613;1274;140804;-66
2022/05/06 02:33:13;;;;;;;16.60;14.80;;;;;;;12.66;68.26;100324.35;214092;1274;142069;-65
2022/05/06 02:38:17;;;;;;;20.50;15.90;;;;;;;12.61;68.42;100321.47;213379;1274;141502;-65
2022/05/06 02:43:21;;;;;;;20.10;16.00;;;;;;;12.59;68.81;100324.30;214685;1274;141408;-67
2022/05/06 02:48:24;;;;;;;19.30;16.30;;;;;;;12.52;69.01;100330.36;213791;1274;141254;-68
2022/05/06 02:53:26;;;;;;;16.90;14.90;;;;;;;12.48;69.40;100333.73;214142;1277;140872;-66
2022/05/06 02:58:29;;;;;;;18.20;15.90;;;;;;;12.49;69.60;100338.81;214411;1275;153307;-69
2022/05/06 03:03:33;;;;;;;21.90;16.70;;;;;;;12.48;70.01;100338.30;213403;1276;141498;-67
2022/05/06 03:08:37;;;;;;;21.80;17.00;;;;;;;12.47;70.34;100343.15;215120;1276;142528;-67
2022/05/06 03:13:41;;;;;;;19.90;16.90;;;;;;;12.47;70.75;100345.99;214600;1276;141175;-66
2022/05/06 03:18:44;;;;;;;25.70;18.40;;;;;;;12.52;70.75;100347.53;214904;1276;222317;-66
2022/05/06 03:23:53;;;;;;;22.80;19.40;;;;;;;12.58;70.90;100346.46;215933;1274;142745;-67
2022/05/06 03:28:58;;;;;;;26.10;20.20;;;;;;;12.64;71.20;100352.08;215730;1274;142030;-67
2022/05/06 03:34:03;;;;;;;25.40;20.10;;;;;;;12.67;71.22;100348.89;215353;1274;141884;-66
2022/05/06 03:39:06;;;;;;;26.50;20.80;;;;;;;12.73;71.42;100355.45;214819;1274;141110;-66
2022/05/06 03:44:08;;;;;;;24.40;20.20;;;;;;;12.76;71.61;100355.05;216006;1274;142923;-67
2022/05/06 03:49:10;;;;;;;35.00;25.00;;;;;;;12.79;71.51;100356.45;213787;1276;140706;-66
2022/05/06 03:54:13;;;;;;;36.60;24.00;;;;;;;12.85;71.72;100368.06;214935;1274;142891;-68
2022/05/06 03:59:15;;;;;;;36.40;26.70;;;;;;;12.93;72.10;100375.41;213953;1274;141942;-68
2022/05/06 04:04:17;;;;;;;34.70;25.80;;;;;;;12.97;72.01;100388.55;215187;1274;143079;-69
2022/05/06 04:09:21;;;;;;;39.10;27.10;;;;;;;12.98;72.21;100394.10;213833;1275;141924;-68
2022/05/06 04:14:23;;;;;;;41.90;28.40;;;;;;;12.99;72.27;100401.13;214044;1274;140826;-70
2022/05/06 04:19:27;;;;;;;41.50;27.50;;;;;;;12.98;72.38;100405.75;213655;1276;142178;-66
2022/05/06 04:24:30;;;;;;;37.60;29.40;;;;;;;12.97;72.30;100408.04;213560;1275;140896;-66
2022/05/06 04:29:32;;;;;;;33.10;24.50;;;;;;;12.97;72.62;100414.66;214108;1276;141919;-68
2022/05/06 04:34:37;;;;;;;36.60;25.20;;;;;;;12.95;72.64;100417.73;213675;1276;141199;-69
2022/05/06 04:39:40;;;;;;;37.90;28.30;;;;;;;12.92;72.90;100422.81;214971;1274;142945;-68
2022/05/06 04:44:43;;;;;;;34.20;26.20;;;;;;;12.91;72.93;100422.04;214181;1274;141062;-68
2022/05/06 04:49:45;;;;;;;41.10;27.50;;;;;;;12.96;73.19;100425.58;213193;1274;141407;-68
2022/05/06 04:54:49;;;;;;;49.70;30.60;;;;;;;12.96;73.00;100426.27;214015;1274;142082;-67
2022/05/06 04:59:52;;;;;;;37.40;29.80;;;;;;;13.01;73.14;100426.44;214331;1275;142176;-67
2022/05/06 05:04:58;;;;;;;44.50;30.30;;;;;;;13.11;73.10;100429.94;215077;1274;141672;-68
2022/05/06 05:10:03;;;;;;;42.10;29.60;;;;;;;13.22;72.95;100431.03;215000;1274;142283;-69
2022/05/06 05:15:07;;;;;;;40.60;27.70;;;;;;;13.32;72.97;100432.49;214772;1274;142370;-66
2022/05/06 05:20:12;;;;;;;45.70;29.70;;;;;;;13.41;72.73;100431.46;214371;1274;153920;-69
2022/05/06 05:25:16;;;;;;;43.20;29.50;;;;;;;13.48;72.85;100437.86;214682;1274;142227;-68
2022/05/06 05:30:20;;;;;;;45.10;26.00;;;;;;;13.57;72.48;100444.75;216079;1274;143225;-69
2022/05/06 05:35:24;;;;;;;39.10;28.50;;;;;;;13.64;72.34;100437.02;215659;1274;142335;-68
2022/05/06 05:40:27;;;;;;;42.20;30.20;;;;;;;13.71;72.04;100441.23;215959;1274;142251;-68
2022/05/06 05:50:53;;;;;;;40.80;28.70;;;;;;;13.91;71.92;100449.22;215310;1274;141516;-72
2022/05/06 05:55:57;;;;;;;42.70;29.50;;;;;;;13.96;71.78;100455.48;214557;1274;142565;-66
2022/05/06 06:01:03;;;;;;;37.20;27.20;;;;;;;14.01;71.57;100458.86;214726;1274;142619;-66
2022/05/06 06:06:08;;;;;;;36.30;27.80;;;;;;;14.05;71.18;100462.73;213828;1274;142859;-66
2022/05/06 06:11:11;;;;;;;36.50;25.50;;;;;;;14.07;71.30;100466.41;214075;1274;142310;-65
2022/05/06 06:16:14;;;;;;;37.50;26.70;;;;;;;14.14;71.16;100467.29;213328;1274;142094;-66
2022/05/06 06:21:16;;;;;;;35.20;24.50;;;;;;;14.62;70.79;100473.27;213341;1274;141960;-66
2022/05/06 06:26:20;;;;;;;32.20;22.40;;;;;;;15.07;70.26;100475.69;214468;1273;142175;-66
2022/05/06 06:31:23;;;;;;;27.60;20.70;;;;;;;15.51;69.38;100475.40;213536;1276;142411;-66
2022/05/06 06:36:27;;;;;;;32.50;22.90;;;;;;;15.94;68.76;100482.33;213433;1276;247564;-66
2022/05/06 06:41:32;;;;;;;28.90;24.80;;;;;;;16.41;67.94;100487.18;214594;1274;140749;-65
2022/05/06 06:46:35;;;;;;;34.90;26.00;;;;;;;16.80;66.82;100492.99;213965;1274;141125;-67
2022/05/06 06:51:38;;;;;;;35.30;26.30;;;;;;;16.75;66.12;100503.35;214519;1274;141181;-69
2022/05/06 06:56:42;;;;;;;35.30;26.50;;;;;;;16.53;65.76;100503.02;213349;1274;142404;-68
2022/05/06 07:01:45;;;;;;;25.80;22.40;;;;;;;16.38;65.57;100502.77;214009;1274;141608;-68
2022/05/06 07:12:09;;;;;;;21.30;17.00;;;;;;;16.57;64.87;100507.19;215492;1274;141861;-69
2022/05/06 07:17:10;;;;;;;25.80;20.20;;;;;;;16.70;64.45;100504.98;214394;1274;140210;-66
2022/05/06 07:22:13;;;;;;;28.20;21.40;;;;;;;16.81;64.03;100511.41;215418;1274;141301;-68
2022/05/06 07:27:29;;;;;;;24.30;18.90;;;;;;;16.85;63.53;100508.76;216207;1274;141905;-67
2022/05/06 07:32:32;;;;;;;29.20;22.00;;;;;;;16.97;63.33;100510.90;216274;1274;156477;-69
2022/05/06 07:37:35;;;;;;;25.50;19.10;;;;;;;17.36;63.36;100509.05;214933;1274;143030;-71
2022/05/06 07:42:38;;;;;;;21.40;16.30;;;;;;;17.65;62.43;100511.05;214476;1274;141319;-71
2022/05/06 07:47:41;;;;;;;20.90;16.40;;;;;;;18.02;61.40;100515.70;213059;1274;616265;-69
2022/05/06 07:53:04;;;;;;;17.20;13.90;;;;;;;18.47;60.26;100510.42;214767;1274;142111;-69
2022/05/06 07:58:06;;;;;;;16.70;15.10;;;;;;;18.81;59.33;100517.60;213405;1274;141142;-67
2022/05/06 08:08:33;;;;;;;22.10;16.00;;;;;;;18.83;57.74;100521.02;213582;1274;141202;-67
2022/05/06 08:13:35;;;;;;;18.90;14.60;;;;;;;18.92;57.64;100519.17;213885;1274;141403;-68
2022/05/06 08:18:39;;;;;;;18.30;14.60;;;;;;;19.53;57.48;100521.52;213954;1274;141294;-66
2022/05/06 08:23:42;;;;;;;24.10;16.60;;;;;;;19.56;55.99;100519.45;214608;1274;140808;-66
2022/05/06 08:28:45;;;;;;;20.10;16.60;;;;;;;19.33;55.76;100515.81;214224;1274;140328;-67
2022/05/06 08:33:47;;;;;;;20.50;16.70;;;;;;;19.76;56.09;100516.20;214464;1274;141072;-67
2022/05/06 08:38:50;;;;;;;18.90;17.10;;;;;;;20.09;55.55;100514.83;213940;1274;140826;-67
2022/05/06 08:43:53;;;;;;;16.50;14.30;;;;;;;20.28;54.59;100518.13;213800;1274;140299;-66
2022/05/06 08:54:18;;;;;;;17.20;14.10;;;;;;;20.23;53.61;100513.61;213827;1274;141151;-67
2022/05/06 08:59:21;;;;;;;17.80;12.00;;;;;;;20.16;53.56;100516.19;215502;1274;141320;-68
2022/05/06 09:04:23;;;;;;;21.30;15.10;;;;;;;20.14;53.15;100514.42;213664;1274;139983;-68
2022/05/06 09:09:25;;;;;;;19.90;13.90;;;;;;;20.25;52.83;100514.83;215163;1274;140879;-72
2022/05/06 09:19:51;;;;;;;22.30;12.40;;;;;;;20.86;52.71;100521.31;214952;1274;141891;-68
2022/05/06 09:24:53;;;;;;;12.50;10.70;;;;;;;21.06;51.76;100524.74;215918;1274;140438;-71
2022/05/06 09:29:56;;;;;;;8.40;7.10;;;;;;;21.16;51.35;100527.61;215797;1274;141023;-74
2022/05/06 09:35:14;;;;;;;7.70;5.10;;;;;;;21.00;50.09;100529.61;215538;1274;139757;-73
2022/05/06 09:40:18;;;;;;;6.80;6.20;;;;;;;20.99;49.43;100523.76;214451;1274;140694;-66
2022/05/06 09:45:38;;;;;;;5.10;4.00;;;;;;;20.86;48.99;100523.77;214280;1274;141005;-70
2022/05/06 09:50:48;;;;;;;8.40;5.00;;;;;;;20.77;48.32;100519.28;213174;1274;141716;-69
2022/05/06 09:55:57;;;;;;;8.50;3.80;;;;;;;20.86;47.71;100512.10;214687;1274;140447;-72
2022/05/06 10:01:02;;;;;;;4.10;3.10;;;;;;;20.97;47.34;100509.46;213762;1274;141790;-71
2022/05/06 10:06:11;;;;;;;5.50;3.20;;;;;;;21.26;46.91;100515.84;214783;1274;141959;-71
2022/05/06 10:11:14;;;;;;;;;;;;;;;21.50;47.04;100510.42;214364;1274;139956;-70
2022/05/06 10:16:18;;;;;;;7.60;3.10;;;;;;;21.69;46.83;100510.82;215713;1274;126964;-73
2022/05/06 10:21:48;;;;;;;12.50;4.30;;;;;;;21.71;45.85;100516.41;214088;1274;140589;-75
2022/05/06 10:26:52;;;;;;;7.00;3.90;;;;;;;21.67;44.91;100519.24;213848;1274;142272;-70
2022/05/06 10:37:18;;;;;;;5.50;3.30;;;;;;;21.83;44.83;100519.97;214143;1274;141457;-74
2022/05/06 10:42:33;;;;;;;3.70;3.40;;;;;;;21.88;44.41;100514.81;213508;1274;140954;-62
2022/05/06 10:47:43;;;;;;;4.00;3.50;;;;;;;21.95;43.61;100510.28;213693;1274;247494;-73
2022/05/06 10:52:47;;;;;;;7.20;3.90;;;;;;;22.04;43.57;100508.70;214255;1274;141334;-75
2022/05/06 10:57:52;;;;;;;5.70;3.60;;;;;;;21.98;43.40;100502.20;213413;1274;143796;-73
2022/05/06 11:03:01;;;;;;;3.30;3.10;;;;;;;21.96;43.04;100498.10;214795;1274;141742;-72
2022/05/06 11:08:07;;;;;;;5.20;3.40;;;;;;;22.04;42.57;100489.73;213458;1274;142114;-74
2022/05/06 11:13:10;;;;;;;6.50;3.70;;;;;;;22.08;41.75;100489.59;214421;1274;142333;-72
2022/05/06 11:18:12;;;;;;;3.10;2.80;;;;;;;22.08;41.55;100488.28;213500;1274;142081;-70
2022/05/06 11:23:14;;;;;;;7.40;3.20;;;;;;;22.05;40.32;100486.53;214903;1274;142339;-72
2022/05/06 11:28:17;;;;;;;3.30;2.30;;;;;;;21.99;39.80;100487.10;214325;1274;141656;-71
2022/05/06 11:33:25;;;;;;;3.20;2.40;;;;;;;22.02;39.55;100480.17;214870;1274;140409;-71
2022/05/06 11:38:35;;;;;;;4.20;3.60;;;;;;;21.99;38.92;100479.88;215649;1274;140099;-69
2022/05/06 11:43:41;;;;;;;15.50;4.80;;;;;;;21.67;38.99;100477.02;215841;1274;140367;-77
2022/05/06 11:48:46;;;;;;;9.00;3.70;;;;;;;21.51;39.14;100475.63;215494;1274;141093;-77
2022/05/06 11:53:50;;;;;;;3.40;3.10;;;;;;;21.37;38.69;100472.70;214696;1274;141152;-72
2022/05/06 11:58:57;;;;;;;3.80;3.00;;;;;;;21.14;38.55;100477.14;215252;1274;139654;-69
2022/05/06 12:04:07;;;;;;;13.60;4.40;;;;;;;21.23;38.94;100475.23;213859;1274;150159;-72
2022/05/06 12:09:22;;;;;;;6.00;3.30;;;;;;;21.20;38.39;100484.09;214763;1274;141707;-69
2022/05/06 12:14:27;;;;;;;15.70;3.90;;;;;;;21.19;38.55;100490.88;213654;1274;141975;-70
2022/05/06 12:19:44;;;;;;;3.30;2.90;;;;;;;21.40;38.76;100488.45;213261;1275;141237;-70
2022/05/06 12:24:51;;;;;;;;;;;;;;;21.50;38.12;100484.16;213526;1275;141518;-73
2022/05/06 12:29:55;;;;;;;5.20;2.80;;;;;;;21.35;37.78;100477.77;214501;1274;127506;-71
2022/05/06 12:35:09;;;;;;;4.70;3.20;;;;;;;21.12;37.60;100479.43;213821;1274;140861;-71
2022/05/06 12:40:17;;;;;;;10.00;3.00;;;;;;;21.17;37.82;100472.77;213097;1276;141771;-66
2022/05/06 12:45:20;;;;;;;5.80;3.50;;;;;;;21.20;37.58;100466.03;213810;1274;163463;-66
2022/05/06 12:50:24;;;;;;;4.30;2.90;;;;;;;21.20;37.62;100457.25;214036;1274;140186;-67
2022/05/06 12:55:27;;;;;;;8.10;3.30;;;;;;;21.12;37.23;100460.89;214784;1274;141453;-70
2022/05/06 13:00:31;;;;;;;3.70;2.30;;;;;;;20.94;36.98;100466.45;215015;1276;141227;-67
2022/05/06 13:05:35;;;;;;;5.40;2.60;;;;;;;20.96;36.60;100467.89;215767;1274;139944;-70
2022/05/06 13:10:38;;;;;;;9.60;3.10;;;;;;;20.92;36.28;100459.10;214855;1274;139056;-70
2022/05/06 13:15:46;;;;;;;2.30;2.20;;;;;;;20.76;36.34;100453.88;215636;1274;139278;-70
2022/05/06 13:20:50;;;;;;;7.30;3.10;;;;;;;20.68;36.49;100453.85;215421;1274;140110;-72
2022/05/06 13:25:55;;;;;;;4.00;3.00;;;;;;;20.71;36.60;100448.67;215980;1274;140225;-72
2022/05/06 13:30:59;;;;;;;9.80;3.00;;;;;;;20.69;36.21;100443.49;215195;1274;141722;-74
2022/05/06 13:36:03;;;;;;;2.10;2.00;;;;;;;20.73;36.59;100442.00;215555;1274;140663;-67
2022/05/06 13:41:06;;;;;;;3.70;2.40;;;;;;;20.74;36.17;100440.09;215977;1274;139582;-72
2022/05/06 13:46:11;;;;;;;6.40;3.30;;;;;;;20.70;36.26;100439.48;214777;1274;141729;-70
2022/05/06 13:51:14;;;;;;;5.70;2.80;;;;;;;20.75;36.75;100440.24;213469;1275;141568;-67
2022/05/06 14:01:41;;;;;;;6.30;2.80;;;;;;;20.53;36.06;100438.91;213863;1274;141355;-66
2022/05/06 14:06:45;;;;;;;3.20;2.10;;;;;;;20.37;35.64;100434.05;214535;1274;141108;-69
2022/05/06 14:11:53;;;;;;;4.80;3.00;;;;;;;20.32;35.52;100431.62;214289;1274;140733;-71
2022/05/06 14:16:55;;;;;;;2.60;2.20;;;;;;;20.34;35.20;100430.05;213961;1274;139751;-69
2022/05/06 14:21:58;;;;;;;2.30;2.10;;;;;;;20.25;34.58;100431.83;213902;1274;141519;-68
2022/05/06 14:27:02;;;;;;;2.30;1.80;;;;;;;20.28;34.01;100435.16;214230;1274;140560;-70
2022/05/06 14:32:08;;;;;;;2.30;2.10;;;;;;;20.27;33.79;100439.78;214208;1274;140596;-73
2022/05/06 14:37:12;;;;;;;8.60;2.50;;;;;;;20.24;33.94;100435.03;213982;1274;141985;-69
2022/05/06 14:42:16;;;;;;;2.30;2.10;;;;;;;20.20;33.87;100437.33;214151;1274;141079;-69
2022/05/06 14:47:21;;;;;;;3.80;1.80;;;;;;;20.20;33.87;100429.15;213289;1274;141353;-68
2022/05/06 14:52:24;;;;;;;2.30;1.50;;;;;;;20.09;33.99;100428.81;214246;1274;141114;-69
2022/05/06 14:57:28;;;;;;;1.80;1.70;;;;;;;19.99;34.09;100428.76;213773;1274;141584;-68
2022/05/06 15:02:33;;;;;;;4.80;2.00;;;;;;;19.93;34.05;100425.32;214357;1274;140719;-66
2022/05/06 15:07:36;;;;;;;8.10;2.70;;;;;;;19.92;34.31;100425.70;214338;1274;142412;-70
2022/05/06 15:12:39;;;;;;;5.50;2.50;;;;;;;19.84;34.72;100422.73;215268;1274;140755;-69
2022/05/06 15:17:42;;;;;;;2.80;2.60;;;;;;;19.76;35.36;100416.34;213171;1274;165065;-70
2022/05/06 15:22:49;;;;;;;3.70;2.70;;;;;;;19.64;35.70;100407.46;215840;1274;140085;-69
2022/05/06 15:27:52;;;;;;;3.20;2.90;;;;;;;19.59;36.47;100403.86;215764;1274;140785;-71
2022/05/06 15:32:55;;;;;;;8.80;3.10;;;;;;;19.58;36.65;100399.23;215757;1274;142214;-70
2022/05/06 15:37:58;;;;;;;3.80;2.80;;;;;;;19.55;36.57;100396.55;216092;1274;139997;-68
2022/05/06 15:43:06;;;;;;;9.00;3.20;;;;;;;19.57;37.20;100401.45;215482;1274;140013;-69
2022/05/06 15:48:08;;;;;;;5.70;3.40;;;;;;;19.47;37.34;100400.73;215175;1274;140177;-68
2022/05/06 15:53:12;;;;;;;2.70;2.50;;;;;;;19.33;37.67;100401.19;214851;1274;141310;-65
2022/05/06 15:58:17;;;;;;;13.30;3.30;;;;;;;19.25;37.75;100401.60;213918;1275;140795;-71
2022/05/06 16:03:20;;;;;;;7.10;3.30;;;;;;;19.12;38.19;100400.73;213563;1274;141330;-68
2022/05/06 16:08:23;;;;;;;3.50;3.00;;;;;;;19.07;38.58;100403.06;214733;1274;140184;-68
2022/05/06 16:13:27;;;;;;;5.50;3.00;;;;;;;19.03;38.88;100408.21;214239;1274;140292;-68
2022/05/06 16:18:30;;;;;;;3.60;2.60;;;;;;;18.96;38.65;100402.07;214437;1274;139848;-65
2022/05/06 16:23:32;;;;;;;7.30;3.00;;;;;;;18.81;38.66;100395.40;214716;1274;140325;-66
2022/05/06 16:28:36;;;;;;;3.50;2.60;;;;;;;18.71;39.06;100394.16;213146;1274;140793;-66
2022/05/06 16:39:06;;;;;;;3.60;2.80;;;;;;;18.53;39.17;100396.48;213585;1274;139794;-67
2022/05/06 16:44:09;;;;;;;5.20;2.60;;;;;;;18.40;39.47;100406.58;214348;1274;221982;-66
2022/05/06 16:49:11;;;;;;;6.00;3.00;;;;;;;18.30;39.73;100406.70;213810;1274;162830;-65
2022/05/06 16:54:14;;;;;;;3.70;3.30;;;;;;;18.13;39.88;100406.94;214737;1274;140757;-67
2022/05/06 16:59:20;;;;;;;4.00;3.00;;;;;;;17.95;40.05;100400.30;213566;1274;140020;-69
2022/05/06 17:04:23;;;;;;;5.70;3.20;;;;;;;17.75;40.48;100407.96;214395;1274;141284;-69
2022/05/06 17:09:26;;;;;;;6.10;3.40;;;;;;;17.64;40.90;100414.15;214343;1276;212847;-66
2022/05/06 17:14:32;;;;;;;4.80;3.10;;;;;;;17.59;41.43;100421.09;215893;1274;140267;-69
2022/05/06 17:19:34;;;;;;;8.40;2.70;;;;;;;17.54;41.42;100424.03;214319;1274;139873;-69
2022/05/06 17:24:39;;;;;;;8.20;3.60;;;;;;;17.43;41.50;100419.94;215928;1274;140053;-69
2022/05/06 17:29:42;;;;;;;6.20;3.70;;;;;;;17.31;41.71;100423.34;215930;1274;141115;-68
2022/05/06 17:34:44;;;;;;;3.10;2.90;;;;;;;17.21;41.97;100420.69;215702;1274;139350;-66
2022/05/06 17:39:47;;;;;;;5.20;3.30;;;;;;;17.10;42.02;100420.16;215291;1274;140046;-66
2022/05/06 17:44:49;;;;;;;8.00;3.10;;;;;;;16.98;42.77;100425.52;215319;1274;139792;-65
2022/05/06 17:49:51;;;;;;;4.10;3.70;;;;;;;16.81;42.90;100426.16;214376;1274;141524;-66
2022/05/06 17:54:54;;;;;;;6.40;3.60;;;;;;;16.61;43.25;100430.47;215433;1274;140233;-70
2022/05/06 18:05:20;;;;;;;2.80;2.60;;;;;;;16.13;44.00;100427.40;214168;1274;142368;-66
2022/05/06 18:10:24;;;;;;;6.00;3.10;;;;;;;15.89;45.08;100435.39;213469;1274;140800;-71
2022/05/06 18:15:33;;;;;;;6.20;3.00;;;;;;;15.62;45.92;100444.80;213705;1274;141249;-66
2022/05/06 18:20:40;;;;;;;6.40;3.80;;;;;;;15.30;46.42;100442.81;213342;1274;141177;-68
2022/05/06 18:25:45;;;;;;;6.50;3.00;;;;;;;15.01;47.27;100450.95;213279;1274;140820;-68
2022/05/06 18:30:52;;;;;;;5.60;3.80;;;;;;;14.65;48.28;100447.48;213777;1274;140995;-69
2022/05/06 18:36:00;;;;;;;6.00;4.10;;;;;;;14.37;48.83;100457.64;213808;1274;144795;-69
2022/05/06 18:41:04;;;;;;;4.60;3.50;;;;;;;14.14;49.10;100458.27;213651;1274;140289;-68
2022/05/06 18:46:08;;;;;;;3.10;2.80;;;;;;;13.89;49.79;100462.32;214542;1274;142640;-66
2022/05/06 18:51:11;;;;;;;2.90;2.70;;;;;;;13.59;50.84;100466.39;213976;1274;140671;-70
2022/05/06 18:56:15;;;;;;;3.50;2.80;;;;;;;13.24;51.60;100471.88;213130;1274;139715;-67
2022/05/06 19:01:18;;;;;;;4.90;3.00;;;;;;;12.92;51.82;100472.63;213239;1274;140668;-68
2022/05/06 19:06:21;;;;;;;5.90;3.60;;;;;;;12.71;52.54;100473.96;215544;1274;140031;-69
2022/05/06 19:11:24;;;;;;;6.80;3.40;;;;;;;12.53;53.55;100478.91;213929;1274;139928;-66
2022/05/06 19:16:28;;;;;;;3.40;3.10;;;;;;;12.25;54.08;100482.56;215322;1274;140858;-67
2022/05/06 19:26:57;;;;;;;3.30;3.00;;;;;;;11.75;54.65;100480.75;215587;1274;140888;-69
2022/05/06 19:32:00;;;;;;;10.90;4.50;;;;;;;11.56;54.76;100481.87;215715;1274;140659;-69
2022/05/06 19:37:13;;;;;;;6.40;4.20;;;;;;;11.46;55.71;100484.52;214901;1274;140287;-68
2022/05/06 19:42:18;;;;;;;5.60;3.50;;;;;;;11.40;56.02;100489.41;213616;1274;141057;-73
2022/05/06 19:47:22;;;;;;;8.30;3.50;;;;;;;11.27;56.28;100488.30;214533;1274;431765;-70
2022/05/06 19:57:48;;;;;;;6.50;3.80;;;;;;;11.00;57.24;100494.45;214396;1274;140412;-71
2022/05/06 20:02:54;;;;;;;4.40;3.60;;;;;;;10.68;58.11;100496.32;213920;1274;139991;-69
2022/05/06 20:08:02;;;;;;;10.30;3.60;;;;;;;10.39;58.68;100501.20;214195;1274;141680;-70
2022/05/06 20:13:08;;;;;;;5.40;4.00;;;;;;;10.19;59.18;100497.36;214683;1274;141067;-69
2022/05/06 20:18:11;;;;;;;8.50;3.10;;;;;;;10.12;59.64;100496.15;213293;1274;141246;-69
2022/05/06 20:23:19;;;;;;;7.60;3.80;;;;;;;9.97;60.13;100497.23;214344;1274;140286;-68
2022/05/06 20:28:23;;;;;;;3.60;3.10;;;;;;;9.83;60.66;100501.08;213245;1274;142911;-69
2022/05/06 20:33:27;;;;;;;5.20;4.50;;;;;;;9.68;61.20;100509.42;213293;1274;222153;-65
2022/05/06 20:38:30;;;;;;;8.10;5.70;;;;;;;9.47;61.48;100511.04;214122;1274;139683;-69
2022/05/06 20:43:45;;;;;;;6.50;4.20;;;;;;;9.37;61.82;100509.05;214474;1274;140001;-69
2022/05/06 20:48:48;;;;;;;18.10;6.40;;;;;;;9.23;61.97;100509.90;213398;1274;141972;-70
2022/05/06 20:53:51;;;;;;;18.00;8.40;;;;;;;9.03;62.35;100510.52;214514;1274;161649;-70
2022/05/06 21:04:15;;;;;;;20.00;9.20;;;;;;;8.91;63.07;100510.52;214675;1274;141039;-71
2022/05/06 21:14:42;;;;;;;13.00;9.40;;;;;;;8.66;63.46;100505.20;215462;1274;140164;-71
2022/05/06 21:19:45;;;;;;;16.10;6.80;;;;;;;8.58;63.71;100510.42;216013;1274;141130;-68
2022/05/06 21:24:49;;;;;;;13.90;7.40;;;;;;;8.54;63.72;100511.70;214855;1274;143212;-66
2022/05/06 21:29:51;;;;;;;14.30;8.50;;;;;;;8.43;63.59;100506.91;215401;1274;141575;-71
2022/05/06 21:34:55;;;;;;;13.60;9.70;;;;;;;8.31;64.20;100501.59;214224;1274;141460;-66
2022/05/06 21:39:59;;;;;;;10.80;8.20;;;;;;;8.22;64.51;100504.30;213592;1274;141104;-69
2022/05/06 21:45:03;;;;;;;10.40;7.80;;;;;;;8.11;64.71;100502.83;213835;1274;140925;-74
2022/05/06 21:50:08;;;;;;;16.20;9.70;;;;;;;8.02;65.06;100504.41;214923;1276;140333;-68
2022/05/06 21:55:11;;;;;;;13.20;9.50;;;;;;;7.97;65.05;100503.83;213038;1274;142158;-69
2022/05/06 22:00:14;;;;;;;12.80;7.20;;;;;;;7.85;65.72;100505.06;214045;1274;142346;-69
2022/05/06 22:05:19;;;;;;;15.70;10.40;;;;;;;7.69;65.72;100504.54;214255;1274;140466;-70
2022/05/06 22:10:22;;;;;;;11.90;9.10;;;;;;;7.52;66.27;100499.73;214361;1274;142483;-68
2022/05/06 22:15:26;;;;;;;15.10;10.30;;;;;;;7.40;66.62;100499.77;213354;1274;142375;-68
2022/05/06 22:20:31;;;;;;;22.20;10.30;;;;;;;7.30;66.61;100497.20;213438;1274;142752;-70
2022/05/06 22:25:35;;;;;;;26.30;13.50;;;;;;;7.30;67.07;100495.61;214083;1274;141243;-67
2022/05/06 22:30:37;;;;;;;13.60;8.80;;;;;;;7.27;67.31;100490.41;214563;1274;142974;-69
2022/05/06 22:35:40;;;;;;;14.50;10.20;;;;;;;7.21;67.48;100494.12;215343;1274;142425;-70
2022/05/06 22:40:43;;;;;;;14.20;10.10;;;;;;;7.15;67.71;100487.01;214118;1274;141953;-68
2022/05/06 22:46:00;;;;;;;11.10;9.90;;;;;;;7.04;67.52;100488.25;214228;1274;141986;-70
2022/05/06 22:51:09;;;;;;;19.90;9.70;;;;;;;6.96;67.60;100491.50;214448;1274;142042;-66
2022/05/06 22:56:14;;;;;;;12.10;9.20;;;;;;;6.88;68.08;100491.84;213491;1274;142889;-68
2022/05/06 23:01:16;;;;;;;15.50;11.00;;;;;;;6.84;68.51;100487.48;216056;1274;141482;-69
2022/05/06 23:06:18;;;;;;;15.70;11.00;;;;;;;6.82;68.48;100488.81;214054;1274;141909;-69
2022/05/06 23:11:24;;;;;;;9.50;7.70;;;;;;;6.77;68.74;100488.77;214373;1274;141651;-65
2022/05/06 23:16:30;;;;;;;17.50;10.00;;;;;;;6.62;68.57;100485.64;215753;1274;142260;-68
2022/05/06 23:21:33;;;;;;;23.20;12.50;;;;;;;6.50;68.79;100486.89;215368;1274;143134;-68
2022/05/06 23:26:37;;;;;;;16.30;11.50;;;;;;;6.44;68.87;100492.30;216007;1274;141657;-66
2022/05/06 23:31:39;;;;;;;19.10;11.60;;;;;;;6.50;69.48;100492.36;214392;1274;141132;-67
2022/05/06 23:42:06;;;;;;;9.90;8.40;;;;;;;6.42;69.04;100486.79;213793;1277;141460;-66
2022/05/06 23:47:08;;;;;;;15.50;10.40;;;;;;;6.22;69.62;100483.78;214885;1274;140742;-70
2022/05/06 23:52:11;;;;;;;18.40;10.40;;;;;;;6.13;69.83;100486.66;214696;1274;141071;-69
2022/05/06 23:57:15;;;;;;;15.90;10.20;;;;;;;6.17;70.39;100487.59;213986;1274;142451;-70
